Terminal Aerodrome Forecast
Issued by NWS Tallahassee, FL

Home | Current Version | Previous Version | Text Only | Print | Product List | Glossary On
Versions: 1 2 3 4 5 6 7 8 9 10 11 12 13 14
004
FTUS42 KTAE 190531
TAFTLH
TAF
KTLH 190531Z 1906/2006 21007KT P6SM SCT030
     FM190800 24010G18KT 6SM -SHRA OVC025
     FM191100 33012G20KT P6SM SCT030
     FM192300 33007KT P6SM SKC=

USA.gov is the U.S. government's official web portal to all federal, state and local government web resources and services.